地図

経路データ

SID SEASON NUMBER BASIN SUBBASIN NAME ISO_TIME NATURE LAT LON WMO_WIND WMO_PRES WMO_AGENCY TRACK_TYPE DIST2LAND LANDFALL IFLAG USA_AGENCY USA_ATCF_ID USA_LAT USA_LON USA_RECORD USA_STATUS USA_WIND USA_PRES USA_SSHS USA_R34_NE USA_R34_SE USA_R34_SW USA_R34_NW USA_R50_NE USA_R50_SE USA_R50_SW USA_R50_NW USA_R64_NE USA_R64_SE USA_R64_SW USA_R64_NW USA_POCI USA_ROCI USA_RMW USA_EYE TOKYO_LAT TOKYO_LON TOKYO_GRADE TOKYO_WIND TOKYO_PRES TOKYO_R50_DIR TOKYO_R50_LONG TOKYO_R50_SHORT TOKYO_R30_DIR TOKYO_R30_LONG TOKYO_R30_SHORT TOKYO_LAND CMA_LAT CMA_LON CMA_CAT CMA_WIND CMA_PRES HKO_LAT HKO_LON HKO_CAT HKO_WIND HKO_PRES NEWDELHI_LAT NEWDELHI_LON NEWDELHI_GRADE NEWDELHI_WIND NEWDELHI_PRES NEWDELHI_CI NEWDELHI_DP NEWDELHI_POCI REUNION_LAT REUNION_LON REUNION_TYPE REUNION_WIND REUNION_PRES REUNION_TNUM REUNION_CI REUNION_RMW REUNION_R34_NE REUNION_R34_SE REUNION_R34_SW REUNION_R34_NW REUNION_R50_NE REUNION_R50_SE REUNION_R50_SW REUNION_R50_NW REUNION_R64_NE REUNION_R64_SE REUNION_R64_SW REUNION_R64_NW BOM_LAT BOM_LON BOM_TYPE BOM_WIND BOM_PRES BOM_TNUM BOM_CI BOM_RMW BOM_R34_NE BOM_R34_SE BOM_R34_SW BOM_R34_NW BOM_R50_NE BOM_R50_SE BOM_R50_SW BOM_R50_NW BOM_R64_NE BOM_R64_SE BOM_R64_SW BOM_R64_NW BOM_ROCI BOM_POCI BOM_EYE BOM_POS_METHOD BOM_PRES_METHOD NADI_LAT NADI_LON NADI_CAT NADI_WIND NADI_PRES WELLINGTON_LAT WELLINGTON_LON WELLINGTON_WIND WELLINGTON_PRES DS824_LAT DS824_LON DS824_STAGE DS824_WIND DS824_PRES TD9636_LAT TD9636_LON TD9636_STAGE TD9636_WIND TD9636_PRES TD9635_LAT TD9635_LON TD9635_WIND TD9635_PRES TD9635_ROCI NEUMANN_LAT NEUMANN_LON NEUMANN_CLASS NEUMANN_WIND NEUMANN_PRES MLC_LAT MLC_LON MLC_CLASS MLC_WIND MLC_PRES USA_GUST BOM_GUST BOM_GUST_PER REUNION_GUST REUNION_GUST_PER USA_SEAHGT USA_SEARAD_NE USA_SEARAD_SE USA_SEARAD_SW USA_SEARAD_NW STORM_SPEED STORM_DIR
1951136N32292 1951 28 NA NA ABLE 1951-05-16 00:00:00 TS 32.0000 -68.0000 30 hurdat_atl main 809 710 O_____________ hurdat_atl AL021951 32.0000 -68.0000 TD 30 -1 23 268
1951136N32292 1951 28 NA NA ABLE 1951-05-16 03:00:00 TS 31.9546 -69.3710 main 703 617 P_____________ AL021951 31.9546 -69.3710 TD 30 -1 24 268
1951136N32292 1951 28 NA NA ABLE 1951-05-16 06:00:00 TS 31.9000 -70.8000 30 hurdat_atl main 609 513 O_____________ hurdat_atl AL021951 31.9000 -70.8000 TD 30 -1 25 267
1951136N32292 1951 28 NA NA ABLE 1951-05-16 09:00:00 TS 31.8172 -72.3131 main 506 429 P_____________ AL021951 31.8172 -72.3131 TD 32 -1 26 263
1951136N32292 1951 28 NA NA ABLE 1951-05-16 12:00:00 TS 31.6000 -73.8000 35 hurdat_atl main 427 399 O_____________ hurdat_atl AL021951 31.6000 -73.8000 TS 35 0 26 255
1951136N32292 1951 28 NA NA ABLE 1951-05-16 15:00:00 TS 31.1679 -75.2443 main 399 388 P_____________ AL021951 31.1679 -75.2443 TS 35 0 24 246
1951136N32292 1951 28 NA NA ABLE 1951-05-16 18:00:00 TS 30.6000 -76.4000 35 hurdat_atl main 389 378 O_____________ hurdat_atl AL021951 30.6000 -76.4000 TS 35 0 20 233
1951136N32292 1951 28 NA NA ABLE 1951-05-16 21:00:00 TS 29.9679 -77.0760 main 369 308 P_____________ AL021951 29.9679 -77.0760 TS 40 0 15 218
1951136N32292 1951 28 NA NA ABLE 1951-05-17 00:00:00 TS 29.4000 -77.5000 45 hurdat_atl main 308 252 O_____________ hurdat_atl AL021951 29.4000 -77.5000 TS 45 0 12 221
1951136N32292 1951 28 NA NA ABLE 1951-05-17 03:00:00 TS 29.0550 -78.0017 main 252 207 P_____________ AL021951 29.0550 -78.0017 TS 50 0 10 233
1951136N32292 1951 28 NA NA ABLE 1951-05-17 06:00:00 TS 28.8000 -78.4000 55 hurdat_atl main 207 185 O_____________ hurdat_atl AL021951 28.8000 -78.4000 TS 55 0 8 226
1951136N32292 1951 28 NA NA ABLE 1951-05-17 09:00:00 TS 28.5073 -78.6597 main 175 167 P_____________ AL021951 28.5073 -78.6597 TS 60 0 7 210
1951136N32292 1951 28 NA NA ABLE 1951-05-17 12:00:00 TS 28.2000 -78.8000 65 hurdat_atl main 169 148 O_____________ hurdat_atl AL021951 28.2000 -78.8000 HU 65 1 7 198
1951136N32292 1951 28 NA NA ABLE 1951-05-17 15:00:00 TS 27.8349 -78.9025 main 144 131 P_____________ AL021951 27.8349 -78.9025 HU 67 1 7 187
1951136N32292 1951 28 NA NA ABLE 1951-05-17 18:00:00 TS 27.5000 -78.9000 70 983 hurdat_atl main 131 126 O_____________ hurdat_atl AL021951 27.5000 -78.9000 HU 70 983 1 6 169
1951136N32292 1951 28 NA NA ABLE 1951-05-17 21:00:00 TS 27.2625 -78.7798 main 131 126 P_____________ AL021951 27.2625 -78.7798 HU 72 1 5 146
1951136N32292 1951 28 NA NA ABLE 1951-05-18 00:00:00 TS 27.1000 -78.6000 75 hurdat_atl main 142 140 O_____________ hurdat_atl AL021951 27.1000 -78.6000 HU 75 1 4 136
1951136N32292 1951 28 NA NA ABLE 1951-05-18 03:00:00 TS 26.9625 -78.4575 main 150 150 P_____________ AL021951 26.9625 -78.4575 HU 75 1 3 127
1951136N32292 1951 28 NA NA ABLE 1951-05-18 06:00:00 TS 26.9000 -78.3000 75 hurdat_atl main 168 168 O_____________ hurdat_atl AL021951 26.9000 -78.3000 HU 75 1 3 98
1951136N32292 1951 28 NA NA ABLE 1951-05-18 09:00:00 TS 26.9200 -78.1076 main 188 188 P_____________ AL021951 26.9200 -78.1076 HU 75 1 4 74
1951136N32292 1951 28 NA NA ABLE 1951-05-18 12:00:00 TS 27.0000 -77.9000 75 982 hurdat_atl main 209 209 O_____________ hurdat_atl AL021951 27.0000 -77.9000 L HU 75 982 1 4 65
1951136N32292 1951 28 NA NA ABLE 1951-05-18 15:00:00 TS 27.0925 -77.6925 main 225 225 P_____________ AL021951 27.0925 -77.6925 HU 72 983 1 4 61
1951136N32292 1951 28 NA NA ABLE 1951-05-18 18:00:00 TS 27.2000 -77.5000 70 985 hurdat_atl main 239 239 O_____________ hurdat_atl AL021951 27.2000 -77.5000 HU 70 985 1 4 57
1951136N32292 1951 28 NA NA ABLE 1951-05-18 21:00:00 TS 27.2925 -77.3424 main 255 255 P_____________ AL021951 27.2925 -77.3424 HU 70 1 3 53
1951136N32292 1951 28 NA NA ABLE 1951-05-19 00:00:00 TS 27.4000 -77.2000 70 hurdat_atl main 268 268 O_____________ hurdat_atl AL021951 27.4000 -77.2000 HU 70 1 4 47
1951136N32292 1951 28 NA NA ABLE 1951-05-19 03:00:00 TS 27.5350 -77.0500 main 285 285 P_____________ AL021951 27.5350 -77.0500 HU 70 1 4 41
1951136N32292 1951 28 NA NA ABLE 1951-05-19 06:00:00 TS 27.7000 -76.9000 70 hurdat_atl main 310 310 O_____________ hurdat_atl AL021951 27.7000 -76.9000 HU 70 1 4 38
1951136N32292 1951 28 NA NA ABLE 1951-05-19 09:00:00 TS 27.8775 -76.7499 main 338 338 P_____________ AL021951 27.8775 -76.7499 HU 72 1 5 34
1951136N32292 1951 28 NA NA ABLE 1951-05-19 12:00:00 TS 28.1000 -76.6000 75 982 hurdat_atl main 362 362 O_____________ hurdat_atl AL021951 28.1000 -76.6000 HU 75 982 1 6 28
1951136N32292 1951 28 NA NA ABLE 1951-05-19 15:00:00 TS 28.3700 -76.4499 main 396 396 P_____________ AL021951 28.3700 -76.4499 HU 75 981 1 7 24
1951136N32292 1951 28 NA NA ABLE 1951-05-19 18:00:00 TS 28.7000 -76.3000 75 hurdat_atl main 410 410 I_____________ hurdat_atl AL021951 28.7000 -76.3000 HU 75 981 1 8 21
1951136N32292 1951 28 NA NA ABLE 1951-05-19 21:00:00 TS 29.0700 -76.1499 main 433 433 P_____________ AL021951 29.0700 -76.1499 HU 75 980 1 8 18
1951136N32292 1951 28 NA NA ABLE 1951-05-20 00:00:00 TS 29.5000 -76.0000 75 980 hurdat_atl main 451 451 O_____________ hurdat_atl AL021951 29.5000 -76.0000 HU 75 980 1 10 16
1951136N32292 1951 28 NA NA ABLE 1951-05-20 03:00:00 TS 29.9925 -75.8499 main 477 436 P_____________ AL021951 29.9925 -75.8499 HU 75 1 10 15
1951136N32292 1951 28 NA NA ABLE 1951-05-20 06:00:00 TS 30.5000 -75.7000 75 hurdat_atl main 436 403 O_____________ hurdat_atl AL021951 30.5000 -75.7000 HU 75 1 10 16
1951136N32292 1951 28 NA NA ABLE 1951-05-20 09:00:00 TS 30.9500 -75.5424 main 399 369 P_____________ AL021951 30.9500 -75.5424 HU 75 1 9 16
1951136N32292 1951 28 NA NA ABLE 1951-05-20 12:00:00 TS 31.4000 -75.4000 75 hurdat_atl main 369 331 O_____________ hurdat_atl AL021951 31.4000 -75.4000 HU 75 1 10 13
1951136N32292 1951 28 NA NA ABLE 1951-05-20 15:00:00 TS 31.8850 -75.2923 main 331 283 P_____________ AL021951 31.8850 -75.2923 HU 75 1 10 10
1951136N32292 1951 28 NA NA ABLE 1951-05-20 18:00:00 TS 32.4000 -75.2000 75 979 hurdat_atl main 283 238 O_____________ hurdat_atl AL021951 32.4000 -75.2000 HU 75 979 1 11 8
1951136N32292 1951 28 NA NA ABLE 1951-05-20 21:00:00 TS 32.9349 -75.1146 main 238 192 P_____________ AL021951 32.9349 -75.1146 HU 75 1 11 9
1951136N32292 1951 28 NA NA ABLE 1951-05-21 00:00:00 TS 33.5000 -75.0000 75 hurdat_atl main 192 162 O_____________ hurdat_atl AL021951 33.5000 -75.0000 HU 75 1 12 12
1951136N32292 1951 28 NA NA ABLE 1951-05-21 03:00:00 TS 34.1150 -74.8152 main 163 141 P_____________ AL021951 34.1150 -74.8152 HU 75 1 12 15
1951136N32292 1951 28 NA NA ABLE 1951-05-21 06:00:00 TS 34.7000 -74.6000 75 hurdat_atl main 141 119 O_____________ hurdat_atl AL021951 34.7000 -74.6000 HU 75 1 11 17
1951136N32292 1951 28 NA NA ABLE 1951-05-21 09:00:00 TS 35.2024 -74.3998 main 119 113 P_____________ AL021951 35.2024 -74.3998 HU 75 1 10 20
1951136N32292 1951 28 NA NA ABLE 1951-05-21 12:00:00 TS 35.6000 -74.2000 75 978 hurdat_atl main 119 117 O_____________ hurdat_atl AL021951 35.6000 -74.2000 HU 75 978 1 8 24
1951136N32292 1951 28 NA NA ABLE 1951-05-21 15:00:00 TS 35.9024 -74.0147 main 135 135 P_____________ AL021951 35.9024 -74.0147 HU 75 977 1 6 33
1951136N32292 1951 28 NA NA ABLE 1951-05-21 18:00:00 TS 36.1000 -73.8000 75 976 hurdat_atl main 156 156 O_____________ hurdat_atl AL021951 36.1000 -73.8000 HU 75 976 1 5 50
1951136N32292 1951 28 NA NA ABLE 1951-05-21 21:00:00 TS 36.2223 -73.5372 main 184 184 P_____________ AL021951 36.2223 -73.5372 HU 77 1 5 68
1951136N32292 1951 28 NA NA ABLE 1951-05-22 00:00:00 TS 36.3000 -73.2000 80 hurdat_atl main 213 213 O_____________ hurdat_atl AL021951 36.3000 -73.2000 HU 80 1 6 73
1951136N32292 1951 28 NA NA ABLE 1951-05-22 03:00:00 TS 36.4073 -72.7950 main 251 251 P_____________ AL021951 36.4073 -72.7950 HU 80 1 8 75
1951136N32292 1951 28 NA NA ABLE 1951-05-22 06:00:00 TS 36.5000 -72.3000 80 hurdat_atl main 297 297 O_____________ hurdat_atl AL021951 36.5000 -72.3000 HU 80 1 9 80
1951136N32292 1951 28 NA NA ABLE 1951-05-22 09:00:00 TS 36.5575 -71.7223 main 351 351 P_____________ AL021951 36.5575 -71.7223 HU 80 1 10 84
1951136N32292 1951 28 NA NA ABLE 1951-05-22 12:00:00 TS 36.6000 -71.1000 80 973 hurdat_atl main 399 399 O_____________ hurdat_atl AL021951 36.6000 -71.1000 HU 80 973 1 10 85
1951136N32292 1951 28 NA NA ABLE 1951-05-22 15:00:00 TS 36.6497 -70.4999 main 447 442 P_____________ AL021951 36.6497 -70.4999 HU 80 1 10 84
1951136N32292 1951 28 NA NA ABLE 1951-05-22 18:00:00 TS 36.7000 -69.9000 80 hurdat_atl main 490 490 O_____________ hurdat_atl AL021951 36.7000 -69.9000 HU 80 1 9 84
1951136N32292 1951 28 NA NA ABLE 1951-05-22 21:00:00 TS 36.7416 -69.3371 main 536 533 P_____________ AL021951 36.7416 -69.3371 HU 80 1 10 84
1951136N32292 1951 28 NA NA ABLE 1951-05-23 00:00:00 TS 36.8000 -68.7000 80 hurdat_atl main 550 550 O_____________ hurdat_atl AL021951 36.8000 -68.7000 HU 80 1 11 83
1951136N32292 1951 28 NA NA ABLE 1951-05-23 03:00:00 TS 36.8846 -67.9097 main 563 563 P_____________ AL021951 36.8846 -67.9097 HU 80 1 14 82
1951136N32292 1951 28 NA NA ABLE 1951-05-23 06:00:00 TS 37.0000 -67.0000 80 hurdat_atl main 582 582 O_____________ hurdat_atl AL021951 37.0000 -67.0000 HU 80 1 16 80
1951136N32292 1951 28 NA NA ABLE 1951-05-23 09:00:00 TS 37.1431 -65.9852 main 615 611 P_____________ AL021951 37.1431 -65.9852 HU 77 1 16 79
1951136N32292 1951 28 NA NA ABLE 1951-05-23 12:00:00 TS 37.3000 -65.0000 75 984 hurdat_atl main 649 649 O_____________ hurdat_atl AL021951 37.3000 -65.0000 HU 75 984 1 15 78
1951136N32292 1951 28 NA NA ABLE 1951-05-23 15:00:00 TS 37.4415 -64.1969 main 685 670 P_____________ AL021951 37.4415 -64.1969 HU 70 1 12 76
1951136N32292 1951 28 NA NA ABLE 1951-05-23 18:00:00 TS 37.6000 -63.5000 65 hurdat_atl main 673 666 O_____________ hurdat_atl AL021951 37.6000 -63.5000 HU 65 1 11 73
1951136N32292 1951 28 NA NA ABLE 1951-05-23 21:00:00 TS 37.7697 -62.8120 main 668 661 P_____________ AL021951 37.7697 -62.8120 HU 60 0 11 69
1951136N32292 1951 28 NA NA ABLE 1951-05-24 00:00:00 TS 38.0000 -62.2000 55 hurdat_atl main 664 652 O_____________ hurdat_atl AL021951 38.0000 -62.2000 TS 55 0 10 59
1951136N32292 1951 28 NA NA ABLE 1951-05-24 03:00:00 TS 38.3043 -61.6915 main 652 629 P_____________ AL021951 38.3043 -61.6915 TS 52 0 11 48
1951136N32292 1951 28 NA NA ABLE 1951-05-24 06:00:00 TS 38.7000 -61.2000 50 hurdat_atl main 634 612 O_____________ hurdat_atl AL021951 38.7000 -61.2000 TS 50 0 12 43
1951136N32292 1951 28 NA NA ABLE 1951-05-24 09:00:00 TS 39.1923 -60.6227 main 617 600 P_____________ AL021951 39.1923 -60.6227 TS 47 0 14 43
1951136N32292 1951 28 NA NA ABLE 1951-05-24 12:00:00 TS 39.7000 -60.0000 45 hurdat_atl main 600 577 O_____________ hurdat_atl AL021951 39.7000 -60.0000 TS 45 0 14 46
1951136N32292 1951 28 NA NA ABLE 1951-05-24 15:00:00 TS 40.1282 -59.3558 main 580 554 P_____________ AL021951 40.1282 -59.3558 TS 40 0 13 51
1951136N32292 1951 28 NA NA ABLE 1951-05-24 18:00:00 TS 40.5000 -58.7000 35 994 hurdat_atl main 557 O_____________ hurdat_atl AL021951 40.5000 -58.7000 TS 35 994 0 12 53

IBTrACS Databaseについて

本データベースは、米国NOAAが公開する1842年以降の世界の熱帯低気圧のベストトラックデータアーカイブInternational Best Track Archive for Climate Stewardship (IBTrACS)を、ウェブで閲覧しやすい形式に変換したものです。

最終更新日:2021-12-03